sensor_id;sensor_type;location;lat;lon;timestamp;temperature;humidity
39847;DHT22;25517;52.422;10.782;2023-05-10T00:01:21;13.20;77.20
39847;DHT22;25517;52.422;10.782;2023-05-10T00:03:46;13.10;77.10
39847;DHT22;25517;52.422;10.782;2023-05-10T00:06:12;13.10;77.30
39847;DHT22;25517;52.422;10.782;2023-05-10T00:08:37;13.10;77.20
39847;DHT22;25517;52.422;10.782;2023-05-10T00:11:03;13.10;77.50
39847;DHT22;25517;52.422;10.782;2023-05-10T00:13:28;13.00;77.90
39847;DHT22;25517;52.422;10.782;2023-05-10T00:15:54;12.90;78.10
39847;DHT22;25517;52.422;10.782;2023-05-10T00:18:19;12.90;78.40
39847;DHT22;25517;52.422;10.782;2023-05-10T00:20:45;12.80;78.30
39847;DHT22;25517;52.422;10.782;2023-05-10T00:23:11;12.90;78.60
39847;DHT22;25517;52.422;10.782;2023-05-10T00:25:37;12.80;78.60
39847;DHT22;25517;52.422;10.782;2023-05-10T00:28:02;12.70;79.30
39847;DHT22;25517;52.422;10.782;2023-05-10T00:30:28;12.70;79.50
39847;DHT22;25517;52.422;10.782;2023-05-10T00:32:54;12.80;79.50
39847;DHT22;25517;52.422;10.782;2023-05-10T00:35:19;12.70;79.60
39847;DHT22;25517;52.422;10.782;2023-05-10T00:37:45;12.70;79.90
39847;DHT22;25517;52.422;10.782;2023-05-10T00:40:11;12.60;80.40
39847;DHT22;25517;52.422;10.782;2023-05-10T00:42:36;12.50;80.50
39847;DHT22;25517;52.422;10.782;2023-05-10T00:45:02;12.50;80.90
39847;DHT22;25517;52.422;10.782;2023-05-10T00:47:27;12.50;81.20
39847;DHT22;25517;52.422;10.782;2023-05-10T00:49:54;12.50;81.80
39847;DHT22;25517;52.422;10.782;2023-05-10T00:52:21;12.50;81.70
39847;DHT22;25517;52.422;10.782;2023-05-10T00:54:49;12.40;81.90
39847;DHT22;25517;52.422;10.782;2023-05-10T00:57:15;12.40;81.90
39847;DHT22;25517;52.422;10.782;2023-05-10T00:59:41;12.40;82.30
39847;DHT22;25517;52.422;10.782;2023-05-10T01:02:06;12.40;82.40
39847;DHT22;25517;52.422;10.782;2023-05-10T01:04:32;12.40;82.90
39847;DHT22;25517;52.422;10.782;2023-05-10T01:06:58;12.40;82.70
39847;DHT22;25517;52.422;10.782;2023-05-10T01:09:24;12.40;83.00
39847;DHT22;25517;52.422;10.782;2023-05-10T01:11:51;12.40;83.10
39847;DHT22;25517;52.422;10.782;2023-05-10T01:14:19;12.30;83.40
39847;DHT22;25517;52.422;10.782;2023-05-10T01:16:45;12.40;83.80
39847;DHT22;25517;52.422;10.782;2023-05-10T01:19:29;12.40;84.00
39847;DHT22;25517;52.422;10.782;2023-05-10T01:30:58;12.30;85.60
39847;DHT22;25517;52.422;10.782;2023-05-10T01:33:47;12.20;86.20
39847;DHT22;25517;52.422;10.782;2023-05-10T01:36:26;12.30;86.60
39847;DHT22;25517;52.422;10.782;2023-05-10T01:39:11;12.30;86.80
39847;DHT22;25517;52.422;10.782;2023-05-10T01:42:11;12.20;87.40
39847;DHT22;25517;52.422;10.782;2023-05-10T01:44:46;12.20;88.10
39847;DHT22;25517;52.422;10.782;2023-05-10T01:47:22;12.10;88.50
39847;DHT22;25517;52.422;10.782;2023-05-10T01:49:52;12.10;89.10
39847;DHT22;25517;52.422;10.782;2023-05-10T01:52:21;12.10;89.60
39847;DHT22;25517;52.422;10.782;2023-05-10T01:54:53;12.00;90.10
39847;DHT22;25517;52.422;10.782;2023-05-10T01:57:20;12.00;90.30
39847;DHT22;25517;52.422;10.782;2023-05-10T01:59:50;12.00;90.70
39847;DHT22;25517;52.422;10.782;2023-05-10T02:02:18;11.90;90.90
39847;DHT22;25517;52.422;10.782;2023-05-10T02:04:45;11.90;91.30
39847;DHT22;25517;52.422;10.782;2023-05-10T02:07:11;11.90;91.70
39847;DHT22;25517;52.422;10.782;2023-05-10T02:09:38;11.90;92.20
39847;DHT22;25517;52.422;10.782;2023-05-10T02:12:05;11.80;92.70
39847;DHT22;25517;52.422;10.782;2023-05-10T02:14:35;11.90;93.20
39847;DHT22;25517;52.422;10.782;2023-05-10T02:17:03;11.80;93.10
39847;DHT22;25517;52.422;10.782;2023-05-10T02:19:31;11.80;93.30
39847;DHT22;25517;52.422;10.782;2023-05-10T02:21:58;11.90;93.60
39847;DHT22;25517;52.422;10.782;2023-05-10T02:24:25;11.80;93.70
39847;DHT22;25517;52.422;10.782;2023-05-10T02:26:54;11.80;94.00
39847;DHT22;25517;52.422;10.782;2023-05-10T02:29:22;11.80;94.30
39847;DHT22;25517;52.422;10.782;2023-05-10T02:31:50;11.80;94.40
39847;DHT22;25517;52.422;10.782;2023-05-10T02:34:16;11.80;95.10
39847;DHT22;25517;52.422;10.782;2023-05-10T02:36:42;11.80;95.40
39847;DHT22;25517;52.422;10.782;2023-05-10T02:39:09;11.70;95.40
39847;DHT22;25517;52.422;10.782;2023-05-10T02:41:38;11.70;95.90
39847;DHT22;25517;52.422;10.782;2023-05-10T02:44:06;11.80;95.80
39847;DHT22;25517;52.422;10.782;2023-05-10T02:46:33;11.80;96.00
39847;DHT22;25517;52.422;10.782;2023-05-10T02:48:59;11.80;95.90
39847;DHT22;25517;52.422;10.782;2023-05-10T02:51:30;11.80;96.40
39847;DHT22;25517;52.422;10.782;2023-05-10T02:53:57;11.70;96.70
39847;DHT22;25517;52.422;10.782;2023-05-10T02:56:30;11.70;97.10
39847;DHT22;25517;52.422;10.782;2023-05-10T02:58:56;11.70;97.50
39847;DHT22;25517;52.422;10.782;2023-05-10T03:01:22;11.70;98.10
39847;DHT22;25517;52.422;10.782;2023-05-10T03:03:48;11.70;98.00
39847;DHT22;25517;52.422;10.782;2023-05-10T03:06:14;11.70;97.70
39847;DHT22;25517;52.422;10.782;2023-05-10T03:08:39;11.70;98.00
39847;DHT22;25517;52.422;10.782;2023-05-10T03:11:38;11.70;98.00
39847;DHT22;25517;52.422;10.782;2023-05-10T03:17:18;11.70;98.40
39847;DHT22;25517;52.422;10.782;2023-05-10T03:19:57;11.70;98.70
39847;DHT22;25517;52.422;10.782;2023-05-10T03:22:30;11.70;98.50
39847;DHT22;25517;52.422;10.782;2023-05-10T03:24:56;11.70;98.80
39847;DHT22;25517;52.422;10.782;2023-05-10T03:27:25;11.70;98.90
39847;DHT22;25517;52.422;10.782;2023-05-10T03:29:52;11.60;99.30
39847;DHT22;25517;52.422;10.782;2023-05-10T03:32:18;11.70;99.50
39847;DHT22;25517;52.422;10.782;2023-05-10T03:34:44;11.60;99.60
39847;DHT22;25517;52.422;10.782;2023-05-10T03:37:09;11.70;99.60
39847;DHT22;25517;52.422;10.782;2023-05-10T03:39:35;11.70;99.70
39847;DHT22;25517;52.422;10.782;2023-05-10T03:42:01;11.70;99.70
39847;DHT22;25517;52.422;10.782;2023-05-10T03:44:26;11.70;99.90
39847;DHT22;25517;52.422;10.782;2023-05-10T03:46:52;11.70;99.90
39847;DHT22;25517;52.422;10.782;2023-05-10T03:49:17;11.70;99.90
39847;DHT22;25517;52.422;10.782;2023-05-10T03:51:43;11.70;99.90
39847;DHT22;25517;52.422;10.782;2023-05-10T03:54:08;11.60;99.90
39847;DHT22;25517;52.422;10.782;2023-05-10T03:56:34;11.70;99.90
39847;DHT22;25517;52.422;10.782;2023-05-10T03:58:59;11.70;99.90
39847;DHT22;25517;52.422;10.782;2023-05-10T04:01:25;11.70;99.90
39847;DHT22;25517;52.422;10.782;2023-05-10T04:03:50;11.70;99.90
39847;DHT22;25517;52.422;10.782;2023-05-10T04:06:16;11.70;99.90
39847;DHT22;25517;52.422;10.782;2023-05-10T04:08:41;11.70;99.90
39847;DHT22;25517;52.422;10.782;2023-05-10T04:11:08;11.70;99.90
39847;DHT22;25517;52.422;10.782;2023-05-10T04:13:34;11.70;99.90
39847;DHT22;25517;52.422;10.782;2023-05-10T04:16:00;11.70;99.90
39847;DHT22;25517;52.422;10.782;2023-05-10T04:18:26;11.70;99.90
39847;DHT22;25517;52.422;10.782;2023-05-10T04:20:51;11.70;99.90
39847;DHT22;25517;52.422;10.782;2023-05-10T04:23:17;11.80;99.90
39847;DHT22;25517;52.422;10.782;2023-05-10T04:25:43;11.80;99.90
39847;DHT22;25517;52.422;10.782;2023-05-10T04:28:08;11.70;99.90
39847;DHT22;25517;52.422;10.782;2023-05-10T04:30:34;11.80;99.90
39847;DHT22;25517;52.422;10.782;2023-05-10T04:33:00;11.80;99.90
39847;DHT22;25517;52.422;10.782;2023-05-10T04:35:27;11.90;99.90
39847;DHT22;25517;52.422;10.782;2023-05-10T04:37:53;11.90;99.90
39847;DHT22;25517;52.422;10.782;2023-05-10T04:40:19;11.90;99.90
39847;DHT22;25517;52.422;10.782;2023-05-10T04:42:45;11.90;99.90
39847;DHT22;25517;52.422;10.782;2023-05-10T04:45:10;12.10;99.90
39847;DHT22;25517;52.422;10.782;2023-05-10T04:47:36;12.10;99.90
39847;DHT22;25517;52.422;10.782;2023-05-10T04:50:03;12.10;99.90
39847;DHT22;25517;52.422;10.782;2023-05-10T04:52:29;12.20;99.90
39847;DHT22;25517;52.422;10.782;2023-05-10T04:54:54;12.30;99.90
39847;DHT22;25517;52.422;10.782;2023-05-10T04:57:20;12.50;99.90
39847;DHT22;25517;52.422;10.782;2023-05-10T04:59:45;12.50;99.90
39847;DHT22;25517;52.422;10.782;2023-05-10T05:02:11;12.60;99.50
39847;DHT22;25517;52.422;10.782;2023-05-10T05:04:36;12.70;99.50
39847;DHT22;25517;52.422;10.782;2023-05-10T05:07:02;12.80;99.50
39847;DHT22;25517;52.422;10.782;2023-05-10T05:09:27;12.90;99.20
39847;DHT22;25517;52.422;10.782;2023-05-10T05:11:53;13.00;99.20
39847;DHT22;25517;52.422;10.782;2023-05-10T05:14:18;13.10;99.20
39847;DHT22;25517;52.422;10.782;2023-05-10T05:16:46;13.20;99.60
39847;DHT22;25517;52.422;10.782;2023-05-10T05:19:11;13.30;98.60
39847;DHT22;25517;52.422;10.782;2023-05-10T05:21:37;13.40;98.70
39847;DHT22;25517;52.422;10.782;2023-05-10T05:24:03;13.50;98.80
39847;DHT22;25517;52.422;10.782;2023-05-10T05:26:28;13.50;98.50
39847;DHT22;25517;52.422;10.782;2023-05-10T05:28:54;13.50;98.20
39847;DHT22;25517;52.422;10.782;2023-05-10T05:31:20;13.50;98.30
39847;DHT22;25517;52.422;10.782;2023-05-10T05:33:46;13.50;98.70
39847;DHT22;25517;52.422;10.782;2023-05-10T05:36:11;13.50;98.50
39847;DHT22;25517;52.422;10.782;2023-05-10T05:38:37;13.50;98.50
39847;DHT22;25517;52.422;10.782;2023-05-10T05:41:02;13.40;98.00
39847;DHT22;25517;52.422;10.782;2023-05-10T05:43:28;13.50;97.80
39847;DHT22;25517;52.422;10.782;2023-05-10T05:45:54;13.40;97.90
39847;DHT22;25517;52.422;10.782;2023-05-10T05:48:20;13.40;98.10
39847;DHT22;25517;52.422;10.782;2023-05-10T05:50:46;13.40;98.30
39847;DHT22;25517;52.422;10.782;2023-05-10T05:53:11;13.40;98.70
39847;DHT22;25517;52.422;10.782;2023-05-10T05:55:37;13.40;98.30
39847;DHT22;25517;52.422;10.782;2023-05-10T05:58:02;13.20;98.40
39847;DHT22;25517;52.422;10.782;2023-05-10T06:00:28;13.20;98.80
39847;DHT22;25517;52.422;10.782;2023-05-10T06:02:54;13.30;99.50
39847;DHT22;25517;52.422;10.782;2023-05-10T06:05:19;13.30;99.20
39847;DHT22;25517;52.422;10.782;2023-05-10T06:07:46;13.30;99.20
39847;DHT22;25517;52.422;10.782;2023-05-10T06:10:11;13.30;99.70
39847;DHT22;25517;52.422;10.782;2023-05-10T06:12:37;13.40;99.90
39847;DHT22;25517;52.422;10.782;2023-05-10T06:15:03;13.40;99.90
39847;DHT22;25517;52.422;10.782;2023-05-10T06:17:28;13.50;99.90
39847;DHT22;25517;52.422;10.782;2023-05-10T06:19:54;13.60;99.90
39847;DHT22;25517;52.422;10.782;2023-05-10T06:22:20;13.70;99.90
39847;DHT22;25517;52.422;10.782;2023-05-10T06:24:48;13.80;99.90
39847;DHT22;25517;52.422;10.782;2023-05-10T06:27:13;13.80;99.90
39847;DHT22;25517;52.422;10.782;2023-05-10T06:29:39;13.90;99.90
39847;DHT22;25517;52.422;10.782;2023-05-10T06:32:04;13.90;99.90
39847;DHT22;25517;52.422;10.782;2023-05-10T06:34:30;14.00;99.40
39847;DHT22;25517;52.422;10.782;2023-05-10T06:36:55;14.10;98.80
39847;DHT22;25517;52.422;10.782;2023-05-10T06:39:21;14.10;98.90
39847;DHT22;25517;52.422;10.782;2023-05-10T06:41:46;14.20;98.30
39847;DHT22;25517;52.422;10.782;2023-05-10T06:44:12;14.30;98.00
39847;DHT22;25517;52.422;10.782;2023-05-10T06:46:38;14.40;98.70
39847;DHT22;25517;52.422;10.782;2023-05-10T06:49:03;14.40;97.90
39847;DHT22;25517;52.422;10.782;2023-05-10T06:51:29;14.50;98.00
39847;DHT22;25517;52.422;10.782;2023-05-10T06:53:56;14.50;97.70
39847;DHT22;25517;52.422;10.782;2023-05-10T06:56:21;14.70;96.60
39847;DHT22;25517;52.422;10.782;2023-05-10T06:58:47;14.80;96.50
39847;DHT22;25517;52.422;10.782;2023-05-10T07:01:13;14.80;96.80
39847;DHT22;25517;52.422;10.782;2023-05-10T07:03:39;14.90;96.70
39847;DHT22;25517;52.422;10.782;2023-05-10T07:06:05;14.80;96.50
39847;DHT22;25517;52.422;10.782;2023-05-10T07:08:32;14.80;96.70
39847;DHT22;25517;52.422;10.782;2023-05-10T07:11:04;14.70;97.90
39847;DHT22;25517;52.422;10.782;2023-05-10T07:13:31;14.70;97.00
39847;DHT22;25517;52.422;10.782;2023-05-10T07:15:58;14.80;97.50
39847;DHT22;25517;52.422;10.782;2023-05-10T07:18:24;14.90;97.20
39847;DHT22;25517;52.422;10.782;2023-05-10T07:20:49;14.90;97.60
39847;DHT22;25517;52.422;10.782;2023-05-10T07:23:15;14.90;97.90
39847;DHT22;25517;52.422;10.782;2023-05-10T07:25:45;15.00;98.50
39847;DHT22;25517;52.422;10.782;2023-05-10T07:28:10;15.10;98.20
39847;DHT22;25517;52.422;10.782;2023-05-10T07:30:36;15.10;97.30
39847;DHT22;25517;52.422;10.782;2023-05-10T07:33:01;15.30;97.50
39847;DHT22;25517;52.422;10.782;2023-05-10T07:35:27;15.40;97.00
39847;DHT22;25517;52.422;10.782;2023-05-10T07:37:52;15.50;96.90
39847;DHT22;25517;52.422;10.782;2023-05-10T07:40:18;15.70;97.10
39847;DHT22;25517;52.422;10.782;2023-05-10T07:42:44;15.90;96.30
39847;DHT22;25517;52.422;10.782;2023-05-10T07:45:09;15.90;96.10
39847;DHT22;25517;52.422;10.782;2023-05-10T07:47:35;15.90;96.00
39847;DHT22;25517;52.422;10.782;2023-05-10T07:50:01;16.00;97.10
39847;DHT22;25517;52.422;10.782;2023-05-10T07:52:27;16.00;96.80
39847;DHT22;25517;52.422;10.782;2023-05-10T07:54:52;16.20;96.80
39847;DHT22;25517;52.422;10.782;2023-05-10T07:57:18;16.20;96.50
39847;DHT22;25517;52.422;10.782;2023-05-10T07:59:44;16.30;97.00
39847;DHT22;25517;52.422;10.782;2023-05-10T08:02:10;16.40;96.60
39847;DHT22;25517;52.422;10.782;2023-05-10T08:04:36;16.60;95.10
39847;DHT22;25517;52.422;10.782;2023-05-10T08:07:01;16.60;95.50
39847;DHT22;25517;52.422;10.782;2023-05-10T08:09:27;16.60;94.50
39847;DHT22;25517;52.422;10.782;2023-05-10T08:11:52;16.20;95.20
39847;DHT22;25517;52.422;10.782;2023-05-10T08:14:18;16.40;95.90
39847;DHT22;25517;52.422;10.782;2023-05-10T08:16:43;16.20;96.10
39847;DHT22;25517;52.422;10.782;2023-05-10T08:19:09;16.10;96.40
39847;DHT22;25517;52.422;10.782;2023-05-10T08:21:34;15.80;97.00
39847;DHT22;25517;52.422;10.782;2023-05-10T08:24:01;15.90;98.10
39847;DHT22;25517;52.422;10.782;2023-05-10T08:26:27;16.00;98.70
39847;DHT22;25517;52.422;10.782;2023-05-10T08:28:52;16.00;98.90
39847;DHT22;25517;52.422;10.782;2023-05-10T08:31:18;16.10;99.20
39847;DHT22;25517;52.422;10.782;2023-05-10T08:33:44;16.10;99.00
39847;DHT22;25517;52.422;10.782;2023-05-10T08:36:09;16.20;99.30
39847;DHT22;25517;52.422;10.782;2023-05-10T08:38:35;16.20;99.90
39847;DHT22;25517;52.422;10.782;2023-05-10T08:41:02;16.30;99.90
39847;DHT22;25517;52.422;10.782;2023-05-10T08:43:28;16.30;99.90
39847;DHT22;25517;52.422;10.782;2023-05-10T08:45:54;16.20;99.90
39847;DHT22;25517;52.422;10.782;2023-05-10T08:48:23;16.20;99.90
39847;DHT22;25517;52.422;10.782;2023-05-10T08:50:53;16.10;99.90
39847;DHT22;25517;52.422;10.782;2023-05-10T08:53:20;15.90;99.90
39847;DHT22;25517;52.422;10.782;2023-05-10T08:55:46;15.80;99.90
39847;DHT22;25517;52.422;10.782;2023-05-10T08:58:12;15.50;99.90
39847;DHT22;25517;52.422;10.782;2023-05-10T09:00:37;15.40;99.90
39847;DHT22;25517;52.422;10.782;2023-05-10T09:03:04;15.40;99.90
39847;DHT22;25517;52.422;10.782;2023-05-10T09:05:30;15.30;99.90
39847;DHT22;25517;52.422;10.782;2023-05-10T09:07:56;15.10;99.90
39847;DHT22;25517;52.422;10.782;2023-05-10T09:10:22;15.10;99.90
39847;DHT22;25517;52.422;10.782;2023-05-10T09:12:51;15.10;99.90
39847;DHT22;25517;52.422;10.782;2023-05-10T09:15:16;15.00;99.90
39847;DHT22;25517;52.422;10.782;2023-05-10T09:17:44;14.80;99.90
39847;DHT22;25517;52.422;10.782;2023-05-10T09:20:10;14.80;99.90
39847;DHT22;25517;52.422;10.782;2023-05-10T09:22:36;14.60;99.90
39847;DHT22;25517;52.422;10.782;2023-05-10T09:25:09;14.50;99.90
39847;DHT22;25517;52.422;10.782;2023-05-10T09:27:37;14.40;99.90
39847;DHT22;25517;52.422;10.782;2023-05-10T09:30:04;14.30;99.90
39847;DHT22;25517;52.422;10.782;2023-05-10T09:32:41;14.30;99.90
39847;DHT22;25517;52.422;10.782;2023-05-10T09:35:11;14.40;99.90
39847;DHT22;25517;52.422;10.782;2023-05-10T09:37:38;14.50;99.90
39847;DHT22;25517;52.422;10.782;2023-05-10T09:40:07;14.50;99.90
39847;DHT22;25517;52.422;10.782;2023-05-10T09:42:34;14.50;99.90
39847;DHT22;25517;52.422;10.782;2023-05-10T09:45:06;14.60;99.90
39847;DHT22;25517;52.422;10.782;2023-05-10T09:47:35;14.70;99.90
39847;DHT22;25517;52.422;10.782;2023-05-10T09:50:02;14.90;99.90
39847;DHT22;25517;52.422;10.782;2023-05-10T09:52:51;14.80;99.90
39847;DHT22;25517;52.422;10.782;2023-05-10T09:55:19;14.60;99.90
39847;DHT22;25517;52.422;10.782;2023-05-10T09:57:46;14.60;99.90
39847;DHT22;25517;52.422;10.782;2023-05-10T10:00:17;14.60;99.90
39847;DHT22;25517;52.422;10.782;2023-05-10T10:02:45;14.60;99.90
39847;DHT22;25517;52.422;10.782;2023-05-10T10:05:11;14.50;99.90
39847;DHT22;25517;52.422;10.782;2023-05-10T10:07:37;14.50;99.90
39847;DHT22;25517;52.422;10.782;2023-05-10T10:10:03;14.60;99.90
39847;DHT22;25517;52.422;10.782;2023-05-10T10:12:30;14.70;99.90
39847;DHT22;25517;52.422;10.782;2023-05-10T10:14:56;15.00;99.90
39847;DHT22;25517;52.422;10.782;2023-05-10T10:17:24;15.20;99.90
39847;DHT22;25517;52.422;10.782;2023-05-10T10:19:52;15.10;99.90
39847;DHT22;25517;52.422;10.782;2023-05-10T10:22:18;15.20;99.90
39847;DHT22;25517;52.422;10.782;2023-05-10T10:24:44;15.30;99.90
39847;DHT22;25517;52.422;10.782;2023-05-10T10:35:09;15.50;99.90
39847;DHT22;25517;52.422;10.782;2023-05-10T10:37:49;15.80;99.90
39847;DHT22;25517;52.422;10.782;2023-05-10T10:40:32;15.90;99.90
39847;DHT22;25517;52.422;10.782;2023-05-10T10:43:21;15.80;99.90
39847;DHT22;25517;52.422;10.782;2023-05-10T10:46:13;15.70;99.90
39847;DHT22;25517;52.422;10.782;2023-05-10T10:48:40;15.80;99.90
39847;DHT22;25517;52.422;10.782;2023-05-10T10:51:05;15.80;99.90
39847;DHT22;25517;52.422;10.782;2023-05-10T10:53:31;15.80;99.90
39847;DHT22;25517;52.422;10.782;2023-05-10T10:56:09;15.70;99.90
39847;DHT22;25517;52.422;10.782;2023-05-10T10:58:36;15.70;99.90
39847;DHT22;25517;52.422;10.782;2023-05-10T11:01:14;15.60;99.90
39847;DHT22;25517;52.422;10.782;2023-05-10T11:03:40;15.60;99.90
39847;DHT22;25517;52.422;10.782;2023-05-10T11:06:06;15.70;99.90
39847;DHT22;25517;52.422;10.782;2023-05-10T11:08:39;15.70;99.90
39847;DHT22;25517;52.422;10.782;2023-05-10T11:11:07;15.70;99.90
39847;DHT22;25517;52.422;10.782;2023-05-10T11:13:42;15.70;99.90
39847;DHT22;25517;52.422;10.782;2023-05-10T11:18:37;15.50;99.90
39847;DHT22;25517;52.422;10.782;2023-05-10T11:21:03;15.50;99.90
39847;DHT22;25517;52.422;10.782;2023-05-10T11:26:07;15.50;99.90
39847;DHT22;25517;52.422;10.782;2023-05-10T11:28:40;15.60;99.90
39847;DHT22;25517;52.422;10.782;2023-05-10T11:31:06;15.70;99.90
39847;DHT22;25517;52.422;10.782;2023-05-10T11:33:45;15.70;99.90
39847;DHT22;25517;52.422;10.782;2023-05-10T11:36:13;15.90;99.90
39847;DHT22;25517;52.422;10.782;2023-05-10T11:38:39;16.00;99.90
39847;DHT22;25517;52.422;10.782;2023-05-10T11:41:04;16.00;99.90
39847;DHT22;25517;52.422;10.782;2023-05-10T11:43:30;16.10;99.90
39847;DHT22;25517;52.422;10.782;2023-05-10T11:45:56;16.00;99.90
39847;DHT22;25517;52.422;10.782;2023-05-10T11:48:22;16.00;99.90
39847;DHT22;25517;52.422;10.782;2023-05-10T11:50:50;15.90;99.90
39847;DHT22;25517;52.422;10.782;2023-05-10T11:53:15;15.80;99.90
39847;DHT22;25517;52.422;10.782;2023-05-10T11:55:41;15.80;99.90
39847;DHT22;25517;52.422;10.782;2023-05-10T11:58:06;15.70;99.90
39847;DHT22;25517;52.422;10.782;2023-05-10T12:00:32;15.50;99.90
39847;DHT22;25517;52.422;10.782;2023-05-10T12:03:00;15.40;99.90
39847;DHT22;25517;52.422;10.782;2023-05-10T12:05:26;15.30;99.90
39847;DHT22;25517;52.422;10.782;2023-05-10T12:07:52;15.30;99.90
39847;DHT22;25517;52.422;10.782;2023-05-10T12:10:25;15.20;99.90
39847;DHT22;25517;52.422;10.782;2023-05-10T12:12:52;15.10;99.90
39847;DHT22;25517;52.422;10.782;2023-05-10T12:15:23;15.10;99.90
39847;DHT22;25517;52.422;10.782;2023-05-10T12:17:49;15.10;99.90
39847;DHT22;25517;52.422;10.782;2023-05-10T12:20:20;15.10;99.90
39847;DHT22;25517;52.422;10.782;2023-05-10T12:22:49;15.00;99.90
39847;DHT22;25517;52.422;10.782;2023-05-10T12:25:14;14.90;99.90
39847;DHT22;25517;52.422;10.782;2023-05-10T12:27:41;14.80;99.90
39847;DHT22;25517;52.422;10.782;2023-05-10T12:30:12;14.70;99.90
39847;DHT22;25517;52.422;10.782;2023-05-10T12:32:39;14.60;99.90
39847;DHT22;25517;52.422;10.782;2023-05-10T12:35:06;14.50;99.90
39847;DHT22;25517;52.422;10.782;2023-05-10T12:37:32;14.50;99.90
39847;DHT22;25517;52.422;10.782;2023-05-10T12:40:01;14.60;99.90
39847;DHT22;25517;52.422;10.782;2023-05-10T12:42:27;14.70;99.90
39847;DHT22;25517;52.422;10.782;2023-05-10T12:44:56;14.80;99.90
39847;DHT22;25517;52.422;10.782;2023-05-10T12:47:22;14.90;99.90
39847;DHT22;25517;52.422;10.782;2023-05-10T12:49:47;15.10;99.90
39847;DHT22;25517;52.422;10.782;2023-05-10T12:52:13;15.20;99.90
39847;DHT22;25517;52.422;10.782;2023-05-10T12:54:38;15.20;99.90
39847;DHT22;25517;52.422;10.782;2023-05-10T12:57:04;15.30;99.90
39847;DHT22;25517;52.422;10.782;2023-05-10T12:59:30;15.60;99.90
39847;DHT22;25517;52.422;10.782;2023-05-10T13:01:56;15.80;99.90
39847;DHT22;25517;52.422;10.782;2023-05-10T13:04:22;15.90;99.90
39847;DHT22;25517;52.422;10.782;2023-05-10T13:06:47;16.10;99.90
39847;DHT22;25517;52.422;10.782;2023-05-10T13:09:13;16.20;99.90
39847;DHT22;25517;52.422;10.782;2023-05-10T13:11:38;16.20;99.90
39847;DHT22;25517;52.422;10.782;2023-05-10T13:14:04;16.40;99.90
39847;DHT22;25517;52.422;10.782;2023-05-10T13:16:30;16.40;99.90
39847;DHT22;25517;52.422;10.782;2023-05-10T13:18:56;16.50;99.90
39847;DHT22;25517;52.422;10.782;2023-05-10T13:21:22;16.70;99.90
39847;DHT22;25517;52.422;10.782;2023-05-10T13:23:49;17.00;99.90
39847;DHT22;25517;52.422;10.782;2023-05-10T13:26:15;17.20;99.90
39847;DHT22;25517;52.422;10.782;2023-05-10T13:28:40;17.40;99.90
39847;DHT22;25517;52.422;10.782;2023-05-10T13:31:06;17.30;99.90
39847;DHT22;25517;52.422;10.782;2023-05-10T13:33:32;17.30;99.90
39847;DHT22;25517;52.422;10.782;2023-05-10T13:35:58;17.40;99.90
39847;DHT22;25517;52.422;10.782;2023-05-10T13:38:23;17.40;99.90
39847;DHT22;25517;52.422;10.782;2023-05-10T13:40:49;17.50;99.90
39847;DHT22;25517;52.422;10.782;2023-05-10T13:43:18;17.40;99.90
39847;DHT22;25517;52.422;10.782;2023-05-10T13:45:43;17.40;99.90
39847;DHT22;25517;52.422;10.782;2023-05-10T13:48:09;17.30;99.90
39847;DHT22;25517;52.422;10.782;2023-05-10T13:50:34;17.50;99.90
39847;DHT22;25517;52.422;10.782;2023-05-10T13:53:00;17.60;99.90
39847;DHT22;25517;52.422;10.782;2023-05-10T13:55:25;17.70;99.90
39847;DHT22;25517;52.422;10.782;2023-05-10T13:57:51;17.90;99.90
39847;DHT22;25517;52.422;10.782;2023-05-10T14:00:17;18.10;99.90
39847;DHT22;25517;52.422;10.782;2023-05-10T14:02:42;18.00;99.90
39847;DHT22;25517;52.422;10.782;2023-05-10T14:05:08;17.50;99.90
39847;DHT22;25517;52.422;10.782;2023-05-10T14:07:34;17.60;99.90
39847;DHT22;25517;52.422;10.782;2023-05-10T14:10:00;17.70;99.90
39847;DHT22;25517;52.422;10.782;2023-05-10T14:12:25;17.80;99.90
39847;DHT22;25517;52.422;10.782;2023-05-10T14:14:51;17.60;99.90
39847;DHT22;25517;52.422;10.782;2023-05-10T14:17:17;17.70;99.90
39847;DHT22;25517;52.422;10.782;2023-05-10T14:19:43;17.90;99.90
39847;DHT22;25517;52.422;10.782;2023-05-10T14:22:08;17.80;99.90
39847;DHT22;25517;52.422;10.782;2023-05-10T14:24:34;18.00;99.90
39847;DHT22;25517;52.422;10.782;2023-05-10T14:26:59;18.20;99.90
39847;DHT22;25517;52.422;10.782;2023-05-10T14:29:25;18.60;99.90
39847;DHT22;25517;52.422;10.782;2023-05-10T14:31:51;18.60;99.90
39847;DHT22;25517;52.422;10.782;2023-05-10T14:34:16;18.60;99.90
39847;DHT22;25517;52.422;10.782;2023-05-10T14:36:42;18.80;99.90
39847;DHT22;25517;52.422;10.782;2023-05-10T14:39:07;19.00;99.90
39847;DHT22;25517;52.422;10.782;2023-05-10T14:41:35;19.10;99.90
39847;DHT22;25517;52.422;10.782;2023-05-10T14:44:00;19.00;99.90
39847;DHT22;25517;52.422;10.782;2023-05-10T14:46:28;19.00;99.90
39847;DHT22;25517;52.422;10.782;2023-05-10T14:48:55;18.80;99.90
39847;DHT22;25517;52.422;10.782;2023-05-10T14:51:20;18.80;99.90
39847;DHT22;25517;52.422;10.782;2023-05-10T14:53:48;18.50;99.90
39847;DHT22;25517;52.422;10.782;2023-05-10T14:56:13;18.40;99.90
39847;DHT22;25517;52.422;10.782;2023-05-10T14:58:39;18.20;99.90
39847;DHT22;25517;52.422;10.782;2023-05-10T15:01:04;18.00;99.90
39847;DHT22;25517;52.422;10.782;2023-05-10T15:03:30;18.10;99.90
39847;DHT22;25517;52.422;10.782;2023-05-10T15:05:56;18.10;99.90
39847;DHT22;25517;52.422;10.782;2023-05-10T15:08:23;17.90;99.90
39847;DHT22;25517;52.422;10.782;2023-05-10T15:10:50;17.90;99.90
39847;DHT22;25517;52.422;10.782;2023-05-10T15:13:15;18.00;99.90
39847;DHT22;25517;52.422;10.782;2023-05-10T15:15:41;17.80;99.90
39847;DHT22;25517;52.422;10.782;2023-05-10T15:18:08;17.70;99.90
39847;DHT22;25517;52.422;10.782;2023-05-10T15:20:33;17.80;99.90
39847;DHT22;25517;52.422;10.782;2023-05-10T15:22:59;17.80;99.90
39847;DHT22;25517;52.422;10.782;2023-05-10T15:25:24;17.70;99.90
39847;DHT22;25517;52.422;10.782;2023-05-10T15:27:50;17.80;99.90
39847;DHT22;25517;52.422;10.782;2023-05-10T15:30:15;17.70;99.90
39847;DHT22;25517;52.422;10.782;2023-05-10T15:32:41;17.60;99.90
39847;DHT22;25517;52.422;10.782;2023-05-10T15:35:08;17.70;99.90
39847;DHT22;25517;52.422;10.782;2023-05-10T15:37:34;17.80;99.90
39847;DHT22;25517;52.422;10.782;2023-05-10T15:40:00;17.70;99.90